Time;durP1;ratioP1;P1;durP2;ratioP2;P2;SDS_P1;SDS_P2;PMS_P1;PMS_P2;Temp;Humidity;BMP_temperature;BMP_pressure;BME280_temperature;BME280_humidity;BME280_pressure;Samples;Min_cycle;Max_cycle;Signal;HPM_P1;HPM_P2
2022/01/05 00:00:17;;;;;;;3.30;2.60;;;;;;;21.69;nan;98784.56;20421012;28;99636;-60
2022/01/05 00:10:18;;;;;;;2.42;2.22;;;;;;;21.66;nan;98778.81;20403244;28;97796;-61
2022/01/05 00:20:18;;;;;;;3.55;2.75;;;;;;;21.63;nan;98784.38;20410127;28;98634;-61
2022/01/05 00:30:21;;;;;;;3.83;2.38;;;;;;;21.58;nan;98767.25;20428384;28;102155;-61
2022/01/05 00:40:21;;;;;;;5.47;2.40;;;;;;;21.56;nan;98753.41;20406412;28;98273;-61
2022/01/05 00:50:22;;;;;;;3.25;2.53;;;;;;;21.54;nan;98768.50;20423563;28;100606;-62
2022/01/05 01:00:22;;;;;;;2.72;2.20;;;;;;;21.52;nan;98775.78;20403736;28;100932;-61
2022/01/05 01:10:23;;;;;;;2.85;2.13;;;;;;;21.51;nan;98782.00;20417351;28;97447;-61
2022/01/05 01:20:23;;;;;;;3.72;2.50;;;;;;;21.48;nan;98774.41;20424167;28;99077;-61
2022/01/05 01:30:24;;;;;;;3.55;2.30;;;;;;;21.46;nan;98763.25;20421666;28;97491;-61
2022/01/05 01:40:24;;;;;;;2.60;2.30;;;;;;;21.44;nan;98736.25;20420571;28;98723;-60
2022/01/05 01:50:26;;;;;;;3.45;2.25;;;;;;;21.43;nan;98742.47;20458302;28;99585;-60
2022/01/05 02:00:29;;;;;;;3.70;2.23;;;;;;;21.38;nan;98739.50;20415010;28;97953;-60
2022/01/05 02:10:30;;;;;;;3.23;2.20;;;;;;;21.37;nan;98754.50;20418809;28;98304;-61
2022/01/05 02:20:30;;;;;;;2.50;2.08;;;;;;;21.37;nan;98756.28;20413007;28;97608;-60
2022/01/05 02:30:32;;;;;;;3.00;2.08;;;;;;;21.35;nan;98740.66;20411114;28;102121;-60
2022/01/05 02:40:33;;;;;;;2.97;2.42;;;;;;;21.33;nan;98726.81;20415665;28;97479;-60
2022/01/05 02:50:34;;;;;;;2.28;2.00;;;;;;;21.33;nan;98723.38;20418739;28;102709;-60
2022/01/05 03:00:36;;;;;;;2.88;2.10;;;;;;;21.31;nan;98717.44;20408093;28;99325;-61
2022/01/05 03:10:36;;;;;;;2.50;2.00;;;;;;;21.27;nan;98716.94;20418767;28;97598;-60
2022/01/05 03:20:37;;;;;;;2.05;1.83;;;;;;;21.28;nan;98716.78;20416773;28;100052;-61
2022/01/05 03:30:38;;;;;;;1.92;1.73;;;;;;;21.23;nan;98713.78;20426875;28;99707;-59
2022/01/05 03:40:44;;;;;;;2.90;2.10;;;;;;;21.22;nan;98720.03;20416310;28;97537;-61
2022/01/05 03:50:47;;;;;;;2.20;1.80;;;;;;;21.20;nan;98700.97;20413707;28;103712;-61
2022/01/05 04:00:51;;;;;;;2.40;1.77;;;;;;;21.18;nan;98697.66;20420807;28;102759;-61
2022/01/05 04:10:56;;;;;;;2.03;1.70;;;;;;;21.16;nan;98685.66;20420493;28;101267;-60
2022/01/05 04:20:56;;;;;;;1.70;1.55;;;;;;;21.16;nan;98680.38;20416734;28;97916;-60
2022/01/05 04:30:58;;;;;;;2.22;1.75;;;;;;;21.14;nan;98677.09;20414473;28;102400;-61
2022/01/05 04:41:00;;;;;;;2.92;2.00;;;;;;;21.14;nan;98679.72;20415698;28;97689;-61
2022/01/05 04:51:00;;;;;;;1.73;1.50;;;;;;;21.11;nan;98676.41;20428920;28;101463;-61
2022/01/05 05:01:01;;;;;;;2.22;1.83;;;;;;;21.12;nan;98672.00;20427551;28;102640;-61
2022/01/05 05:11:02;;;;;;;2.15;1.77;;;;;;;21.16;nan;98673.31;20423204;28;101412;-60
2022/01/05 05:21:03;;;;;;;3.05;1.77;;;;;;;21.35;nan;98676.63;20431617;28;98981;-61
2022/01/05 05:31:06;;;;;;;4.30;1.77;;;;;;;21.53;nan;98679.97;20447553;28;102768;-59
2022/01/05 05:41:07;;;;;;;5.97;1.60;;;;;;;21.65;nan;98680.50;20513260;27;98200;-60
2022/01/05 05:51:07;;;;;;;4.20;1.50;;;;;;;21.77;nan;98703.91;20506235;28;100598;-60
2022/01/05 06:01:07;;;;;;;5.75;1.65;;;;;;;21.79;nan;98717.72;20500860;28;100354;-61
2022/01/05 06:11:08;;;;;;;6.47;2.13;;;;;;;21.82;nan;98701.59;20494026;28;99267;-60
2022/01/05 06:21:08;;;;;;;13.70;2.75;;;;;;;21.75;nan;98710.16;20485945;28;104387;-60
2022/01/05 06:31:10;;;;;;;9.40;2.85;;;;;;;21.72;nan;98721.00;20490193;28;102550;-61
2022/01/05 06:41:11;;;;;;;8.43;3.33;;;;;;;21.77;nan;98707.34;20511235;28;101419;-60
2022/01/05 06:51:11;;;;;;;7.05;3.00;;;;;;;21.82;nan;98706.88;20504450;28;102849;-60
2022/01/05 07:01:12;;;;;;;6.78;2.67;;;;;;;21.87;nan;98717.72;20505350;28;101810;-61
2022/01/05 07:11:12;;;;;;;5.03;2.40;;;;;;;21.94;nan;98715.28;20505135;28;98891;-61
2022/01/05 07:21:13;;;;;;;6.43;2.92;;;;;;;21.95;nan;98717.75;20503162;28;99832;-60
2022/01/05 07:31:15;;;;;;;9.65;2.95;;;;;;;21.97;nan;98731.59;20506411;28;98771;-60
2022/01/05 07:41:16;;;;;;;4.70;2.22;;;;;;;21.98;nan;98735.03;20507028;28;100743;-62
2022/01/05 07:51:17;;;;;;;5.90;2.90;;;;;;;21.97;nan;98734.22;20484492;28;97773;-61
2022/01/05 08:01:19;;;;;;;7.57;2.28;;;;;;;21.98;nan;98720.03;20501089;28;99822;-60
2022/01/05 08:11:20;;;;;;;4.13;2.20;;;;;;;22.01;nan;98729.44;20501088;28;99174;-60
2022/01/05 08:21:22;;;;;;;6.57;2.60;;;;;;;22.03;nan;98752.00;20506365;28;97359;-60
2022/01/05 08:31:22;;;;;;;4.05;2.38;;;;;;;22.04;nan;98744.91;20502866;28;97438;-60
2022/01/05 08:41:23;;;;;;;5.13;2.97;;;;;;;22.09;nan;98760.25;20505359;28;97922;-60
2022/01/05 08:51:24;;;;;;;5.57;2.80;;;;;;;22.10;nan;98735.53;20504305;28;97430;-60
2022/01/05 09:01:25;;;;;;;9.00;3.30;;;;;;;22.10;nan;98744.25;20499540;28;98957;-60
2022/01/05 09:11:27;;;;;;;7.88;3.72;;;;;;;22.13;nan;98761.53;20516813;28;102597;-60
2022/01/05 09:21:29;;;;;;;7.80;3.37;;;;;;;22.15;nan;98763.03;20500855;28;97812;-60
2022/01/05 09:31:29;;;;;;;5.73;3.77;;;;;;;22.16;nan;98759.41;20508919;28;97872;-60
2022/01/05 09:51:54;;;;;;;10.25;5.28;;;;;;;22.12;nan;98796.81;20512813;28;98526;-60
2022/01/05 10:01:55;;;;;;;8.45;4.60;;;;;;;22.12;nan;98773.06;20513276;28;98109;-61
2022/01/05 10:11:56;;;;;;;14.75;9.43;;;;;;;22.10;nan;98773.25;20519545;28;101565;-60
2022/01/05 10:21:57;;;;;;;8.23;6.28;;;;;;;22.11;nan;98782.81;20511862;28;99575;-59
2022/01/05 10:32:01;;;;;;;15.52;9.82;;;;;;;22.08;nan;98777.84;20507318;28;98321;-60
2022/01/05 10:42:10;;;;;;;10.88;7.97;;;;;;;22.10;nan;98789.06;20497455;28;98957;-59
2022/01/05 10:52:33;;;;;;;10.70;7.97;;;;;;;22.05;nan;98794.81;20500319;28;102334;-60
2022/01/05 11:02:35;;;;;;;8.95;6.13;;;;;;;22.06;nan;98812.28;20455609;28;97666;-59
2022/01/05 11:12:44;;;;;;;9.73;6.50;;;;;;;22.03;nan;98825.81;20431857;28;98359;-59
2022/01/05 11:22:45;;;;;;;11.40;8.00;;;;;;;22.01;nan;98845.41;20425356;28;100334;-59
2022/01/05 11:32:48;;;;;;;11.35;8.60;;;;;;;22.00;nan;98851.66;20425388;28;97743;-59
2022/01/05 11:42:51;;;;;;;17.48;12.68;;;;;;;21.98;nan;98857.06;20421476;28;97905;-59
2022/01/05 11:53:06;;;;;;;13.00;9.63;;;;;;;21.96;nan;98893.31;20428747;28;101930;-59
2022/01/05 12:03:06;;;;;;;10.95;7.97;;;;;;;21.98;nan;98872.06;20439164;28;102523;-60
2022/01/05 12:13:07;;;;;;;12.00;8.00;;;;;;;22.01;nan;98896.31;20424692;28;97921;-60
2022/01/05 12:23:49;;;;;;;11.17;8.53;;;;;;;22.02;nan;98897.97;20411565;28;102237;-60
2022/01/05 12:33:54;;;;;;;13.63;8.60;;;;;;;22.03;nan;98911.94;20416138;28;97773;-60
2022/01/05 12:43:57;;;;;;;102.45;29.40;;;;;;;22.10;nan;98909.50;20411063;28;101845;-58
2022/01/05 12:54:01;;;;;;;109.55;45.08;;;;;;;22.13;nan;98922.34;20410041;28;99190;-60
2022/01/05 13:04:11;;;;;;;55.22;23.08;;;;;;;21.86;nan;98945.31;20405817;28;101072;-59
2022/01/05 13:14:14;;;;;;;34.42;14.52;;;;;;;21.68;nan;98956.78;20414367;28;102826;-60
2022/01/05 13:24:15;;;;;;;21.80;11.07;;;;;;;21.61;nan;98976.81;20423080;28;100300;-62
2022/01/05 13:34:16;;;;;;;32.90;15.20;;;;;;;21.61;nan;98984.72;20445743;28;97922;-61
2022/01/05 13:44:16;;;;;;;33.42;17.08;;;;;;;21.66;nan;98986.91;20427792;28;102273;-61
2022/01/05 13:54:19;;;;;;;30.35;16.08;;;;;;;21.71;nan;98992.53;20430270;28;99354;-60
2022/01/05 14:04:19;;;;;;;30.77;15.53;;;;;;;;;;20414614;28;98524;-59
2022/01/05 14:14:20;;;;;;;27.17;15.03;;;;;;;21.80;nan;99017.94;20443318;28;98693;-60
2022/01/05 14:24:33;;;;;;;31.25;14.60;;;;;;;21.83;nan;99038.69;20422684;28;98033;-60
2022/01/05 14:34:53;;;;;;;33.42;14.40;;;;;;;21.85;nan;99033.25;20427830;28;100164;-60
2022/01/05 14:44:57;;;;;;;31.20;13.82;;;;;;;21.88;nan;99075.13;20424601;28;98319;-60
2022/01/05 14:54:57;;;;;;;24.67;12.50;;;;;;;21.87;nan;99069.03;20417350;28;100780;-60
2022/01/05 15:04:58;;;;;;;24.42;12.60;;;;;;;21.88;nan;99093.56;20412361;28;98788;-60
2022/01/05 15:14:59;;;;;;;32.08;11.70;;;;;;;21.88;nan;99081.22;20419402;28;97892;-61
2022/01/05 15:25:02;;;;;;;26.98;11.48;;;;;;;21.88;nan;99147.09;20407416;28;100168;-61
2022/01/05 15:35:03;;;;;;;19.55;10.63;;;;;;;21.87;nan;99142.81;20399649;28;97764;-60
2022/01/05 15:45:05;;;;;;;18.77;10.32;;;;;;;21.88;nan;99133.09;20417370;28;101429;-61
2022/01/05 15:55:09;;;;;;;18.17;9.82;;;;;;;21.88;nan;99151.53;20401720;28;100225;-59
2022/01/05 16:05:10;;;;;;;16.63;9.40;;;;;;;21.88;nan;99170.00;20401014;28;100601;-61
2022/01/05 16:15:11;;;;;;;15.15;8.93;;;;;;;21.87;nan;99178.88;20433289;28;98951;-62
2022/01/05 16:25:12;;;;;;;13.50;7.72;;;;;;;21.84;nan;99158.94;20418416;28;98117;-60
2022/01/05 16:35:14;;;;;;;13.60;7.38;;;;;;;21.84;nan;99137.03;20416219;28;98995;-59
2022/01/05 16:45:15;;;;;;;12.80;7.10;;;;;;;21.81;nan;99151.31;20408164;28;99288;-60
2022/01/05 16:55:19;;;;;;;13.60;6.65;;;;;;;21.82;nan;99167.97;20410469;28;98915;-60
2022/01/05 17:05:20;;;;;;;13.27;6.70;;;;;;;21.83;nan;99153.81;20398503;28;97815;-61
2022/01/05 17:15:21;;;;;;;13.55;6.38;;;;;;;21.88;nan;99222.69;20411547;28;99584;-60
2022/01/05 17:25:22;;;;;;;10.75;5.80;;;;;;;21.94;nan;99230.00;20398485;28;98379;-59
2022/01/05 17:35:24;;;;;;;27.63;12.95;;;;;;;21.97;nan;99253.44;20394488;28;101834;-59
2022/01/05 17:45:24;;;;;;;37.95;19.38;;;;;;;22.03;nan;99244.91;20402961;28;99451;-60
2022/01/05 17:55:25;;;;;;;29.63;16.13;;;;;;;22.09;nan;99230.28;20417935;28;98378;-61
2022/01/05 18:05:27;;;;;;;90.65;39.15;;;;;;;22.10;nan;99229.28;20409472;28;98035;-60
2022/01/05 18:15:28;;;;;;;76.88;34.80;;;;;;;22.14;nan;99238.56;20424970;28;98032;-59
2022/01/05 18:25:30;;;;;;;72.65;31.35;;;;;;;22.17;nan;99243.53;20405986;28;101048;-61
2022/01/05 18:35:31;;;;;;;67.50;28.33;;;;;;;22.23;nan;99231.53;20409240;28;101621;-61
2022/01/05 18:45:31;;;;;;;60.75;25.65;;;;;;;22.32;nan;99222.69;20432919;28;100350;-61
2022/01/05 18:55:32;;;;;;;56.63;22.75;;;;;;;22.43;nan;99234.84;20402489;28;100926;-60
2022/01/05 19:05:33;;;;;;;47.97;21.10;;;;;;;22.50;nan;99237.69;20406829;28;100367;-60
2022/01/05 19:15:34;;;;;;;44.97;19.83;;;;;;;22.59;nan;99213.00;20395629;28;102231;-62
2022/01/05 19:25:35;;;;;;;41.10;17.63;;;;;;;22.72;nan;99238.97;20405430;28;102289;-58
2022/01/05 19:35:36;;;;;;;35.97;16.40;;;;;;;22.78;nan;99271.84;20387920;28;101965;-58
2022/01/05 19:45:44;;;;;;;34.53;15.82;;;;;;;22.81;nan;99287.34;20422553;28;98134;-59
2022/01/05 19:55:47;;;;;;;29.13;13.80;;;;;;;22.78;nan;99279.75;20380568;28;105788;-60
2022/01/05 20:05:49;;;;;;;30.63;13.55;;;;;;;22.75;nan;99269.50;20400394;28;102993;-59
2022/01/05 20:15:50;;;;;;;30.17;13.93;;;;;;;22.74;nan;99288.94;20407436;28;101785;-61
2022/01/05 20:25:50;;;;;;;27.75;11.25;;;;;;;22.58;nan;99316.88;20424155;28;100413;-59
2022/01/05 20:35:53;;;;;;;34.70;12.55;;;;;;;22.51;nan;99329.84;20411496;28;97430;-60
2022/01/05 20:45:54;;;;;;;23.98;11.30;;;;;;;22.44;nan;99302.44;20422484;28;98401;-60
2022/01/05 20:55:55;;;;;;;20.60;10.63;;;;;;;22.33;nan;99334.31;20408129;28;97841;-60
2022/01/05 21:05:55;;;;;;;19.00;10.38;;;;;;;22.27;nan;99332.28;20412610;28;99296;-59
2022/01/05 21:15:59;;;;;;;21.37;9.60;;;;;;;22.20;nan;99345.22;20407543;28;103037;-60
2022/01/05 21:26:00;;;;;;;18.88;9.85;;;;;;;22.11;nan;99359.31;20416183;28;98502;-60
2022/01/05 21:36:02;;;;;;;16.15;8.55;;;;;;;22.02;nan;99390.03;20443938;28;102990;-60
2022/01/05 21:46:03;;;;;;;18.33;8.25;;;;;;;21.98;nan;99399.22;20428498;28;102479;-59
2022/01/05 21:56:05;;;;;;;14.63;8.43;;;;;;;21.95;nan;99416.16;20444083;28;102535;-61
2022/01/05 22:06:06;;;;;;;17.43;8.67;;;;;;;21.92;nan;99416.44;20446919;28;97818;-61
2022/01/05 22:16:06;;;;;;;14.38;7.50;;;;;;;21.88;nan;99418.53;20454511;28;102710;-59
2022/01/05 22:26:07;;;;;;;10.80;6.70;;;;;;;21.86;nan;99422.28;20447909;28;98954;-61
2022/01/05 22:36:09;;;;;;;13.35;7.43;;;;;;;21.81;nan;99416.66;20414857;28;97966;-60
2022/01/05 22:46:10;;;;;;;11.65;6.50;;;;;;;21.79;nan;99431.75;20413523;28;98548;-59
2022/01/05 22:56:11;;;;;;;12.73;6.55;;;;;;;21.79;nan;99386.97;20421349;28;98337;-60
2022/01/05 23:06:14;;;;;;;10.77;6.03;;;;;;;21.77;nan;99391.56;20416217;28;98312;-59
2022/01/05 23:16:14;;;;;;;9.10;5.40;;;;;;;21.72;nan;99429.72;20463774;28;101732;-60
2022/01/05 23:26:18;;;;;;;11.13;5.90;;;;;;;21.67;nan;99453.03;20437259;28;100012;-61
2022/01/05 23:36:21;;;;;;;8.93;5.40;;;;;;;21.63;nan;99458.72;20431469;28;103235;-61
2022/01/05 23:46:22;;;;;;;8.13;4.93;;;;;;;21.58;nan;99486.34;20416967;28;104093;-60
2022/01/05 23:56:25;;;;;;;7.20;4.38;;;;;;;21.54;nan;99492.00;20414311;28;101956;-60
